createdAt,value
2019-04-30T00:00:38.177Z,96284.99
2019-04-30T00:03:22.632Z,96287.75
2019-04-30T00:05:53.795Z,96281.82
2019-04-30T00:08:25.591Z,96274.70
2019-04-30T00:10:55.499Z,96277.27
2019-04-30T00:13:25.888Z,96270.22
2019-04-30T00:15:58.766Z,96265.41
2019-04-30T00:18:30.773Z,96272.66
2019-04-30T00:20:58.262Z,96259.59
2019-04-30T00:23:30.678Z,96268.55
2019-04-30T00:26:04.987Z,96264.39
2019-04-30T00:28:30.588Z,96255.80
2019-04-30T00:31:00.336Z,96254.58
2019-04-30T00:33:29.930Z,96258.50
2019-04-30T00:35:59.539Z,96254.66
2019-04-30T00:38:29.583Z,96250.33
2019-04-30T00:41:01.885Z,96255.96
2019-04-30T00:43:31.826Z,96250.56
2019-04-30T00:46:01.585Z,96249.73
2019-04-30T00:48:31.384Z,96248.70
2019-04-30T00:51:00.963Z,96248.39
2019-04-30T00:53:30.559Z,96250.46
2019-04-30T00:56:00.293Z,96252.55
2019-04-30T00:58:30.401Z,96253.41
2019-04-30T01:01:04.868Z,96252.59
2019-04-30T01:03:35.217Z,96247.84
2019-04-30T01:06:05.383Z,96246.57
2019-04-30T01:08:35.845Z,96243.00
2019-04-30T01:11:09.423Z,96242.57
2019-04-30T01:13:38.911Z,96240.93
2019-04-30T01:16:09.894Z,96236.69
2019-04-30T01:18:39.519Z,96237.50
2019-04-30T01:21:11.219Z,96237.97
2019-04-30T01:23:47.879Z,96234.95
2019-04-30T01:26:12.384Z,96234.80
2019-04-30T01:28:42.192Z,96240.48
2019-04-30T01:31:11.784Z,96231.48
2019-04-30T01:33:41.383Z,96236.33
2019-04-30T01:36:13.333Z,96230.86
2019-04-30T01:38:44.791Z,96224.03
2019-04-30T01:41:13.749Z,96219.35
2019-04-30T01:43:43.344Z,96216.08
2019-04-30T01:46:13.974Z,96209.58
2019-04-30T01:48:47.988Z,96202.56
2019-04-30T01:51:20.407Z,96197.84
2019-04-30T01:53:46.431Z,96199.24
2019-04-30T01:56:25.277Z,96205.17
2019-04-30T01:59:02.237Z,96206.98
2019-04-30T02:01:36.459Z,96209.71
2019-04-30T02:04:06.089Z,96213.73
2019-04-30T02:06:35.674Z,96213.42
2019-04-30T02:09:09.097Z,96205.34
2019-04-30T02:11:38.932Z,96205.47
2019-04-30T02:14:09.055Z,96210.69
2019-04-30T02:16:39.569Z,96207.66
2019-04-30T02:19:09.256Z,96204.45
2019-04-30T02:21:38.869Z,96209.00
2019-04-30T02:24:08.950Z,96206.02
2019-04-30T02:26:39.816Z,96202.02
2019-04-30T02:29:09.399Z,96208.47
2019-04-30T02:31:40.744Z,96203.09
2019-04-30T02:34:12.120Z,96204.78
2019-04-30T02:36:43.381Z,96208.83
2019-04-30T02:39:12.971Z,96207.25
2019-04-30T02:41:44.307Z,96204.83
2019-04-30T02:44:15.609Z,96205.55
2019-04-30T02:46:47.066Z,96198.45
2019-04-30T02:49:20.417Z,96204.22
2019-04-30T02:51:52.580Z,96204.16
2019-04-30T02:54:29.451Z,96209.77
2019-04-30T02:56:59.845Z,96203.77
2019-04-30T02:59:30.010Z,96193.47
2019-04-30T03:02:00.060Z,96205.05
2019-04-30T03:04:29.726Z,96196.98
2019-04-30T03:06:59.956Z,96199.51
2019-04-30T03:09:29.909Z,96200.00
2019-04-30T03:12:00.325Z,96190.70
2019-04-30T03:14:30.349Z,96194.31
2019-04-30T03:17:01.613Z,96193.60
2019-04-30T03:19:41.892Z,96192.98
2019-04-30T03:22:13.156Z,96187.79
2019-04-30T03:24:43.179Z,96191.76
2019-04-30T03:27:12.862Z,96195.12
2019-04-30T03:29:42.487Z,96189.75
2019-04-30T03:32:13.733Z,96192.47
2019-04-30T03:34:43.503Z,96193.48
2019-04-30T03:37:13.091Z,96189.43
2019-04-30T03:39:42.672Z,96185.86
2019-04-30T03:42:12.364Z,96189.69
2019-04-30T03:44:42.279Z,96193.66
2019-04-30T03:47:11.906Z,96186.84
2019-04-30T03:49:41.527Z,96181.82
2019-04-30T03:52:13.429Z,96192.77
2019-04-30T03:54:42.551Z,96192.03
2019-04-30T03:57:12.136Z,96198.95
2019-04-30T03:59:41.875Z,96188.12
2019-04-30T04:02:25.078Z,96189.58
2019-04-30T04:05:12.465Z,96183.12
2019-04-30T04:07:49.833Z,96184.88
2019-04-30T04:10:23.087Z,96193.16
2019-04-30T04:12:52.775Z,96191.08
2019-04-30T04:15:22.385Z,96191.84
2019-04-30T04:17:51.965Z,96195.13
2019-04-30T04:20:21.571Z,96196.94
2019-04-30T04:22:51.199Z,96196.89
2019-04-30T04:25:20.930Z,96199.49
2019-04-30T04:27:51.127Z,96209.91
2019-04-30T04:30:22.368Z,96207.63
2019-04-30T04:32:52.026Z,96209.48
2019-04-30T04:35:21.615Z,96209.55
2019-04-30T04:37:51.304Z,96199.96
2019-04-30T04:40:21.352Z,96206.25
2019-04-30T04:42:51.050Z,96213.19
2019-04-30T04:45:20.714Z,96214.15
2019-04-30T04:47:50.723Z,96212.28
2019-04-30T04:50:20.569Z,96215.84
2019-04-30T04:52:50.176Z,96214.67
2019-04-30T04:55:22.102Z,96215.48
2019-04-30T04:57:51.132Z,96216.69
2019-04-30T05:00:21.085Z,96218.33
2019-04-30T05:02:52.452Z,96212.11
2019-04-30T05:05:22.084Z,96208.52
2019-04-30T05:07:51.714Z,96213.27
2019-04-30T05:10:21.342Z,96210.85
2019-04-30T05:12:51.156Z,96222.23
2019-04-30T05:15:20.747Z,96212.39
2019-04-30T05:17:50.367Z,96204.86
2019-04-30T05:20:19.994Z,96211.52
2019-04-30T05:22:49.858Z,96198.86
2019-04-30T05:25:19.467Z,96205.52
2019-04-30T05:27:49.050Z,96201.14
2019-04-30T05:30:19.882Z,96204.73
2019-04-30T05:32:50.874Z,96200.56
2019-04-30T05:35:20.576Z,96201.17
2019-04-30T05:37:50.210Z,96201.26
2019-04-30T05:40:19.801Z,96203.94
2019-04-30T05:42:49.734Z,96198.23
2019-04-30T05:45:19.810Z,96191.47
2019-04-30T05:47:50.544Z,96199.01
2019-04-30T05:50:20.495Z,96195.33
2019-04-30T05:52:50.113Z,96195.55
2019-04-30T05:55:19.989Z,96187.55
2019-04-30T05:57:55.999Z,96182.34
2019-04-30T06:00:21.315Z,96186.75
2019-04-30T06:02:51.013Z,96188.38
2019-04-30T06:05:20.676Z,96183.23
2019-04-30T06:07:52.094Z,96192.93
2019-04-30T06:10:24.314Z,96189.22
2019-04-30T06:12:55.585Z,96186.95
2019-04-30T06:15:28.971Z,96183.67
2019-04-30T06:18:02.887Z,96192.93
2019-04-30T06:20:29.894Z,96197.73
2019-04-30T06:23:00.226Z,96195.81
2019-04-30T06:25:37.340Z,96195.91
2019-04-30T06:28:01.989Z,96188.62
2019-04-30T06:30:32.489Z,96191.36
2019-04-30T06:33:03.130Z,96194.47
2019-04-30T06:35:33.164Z,96188.98
2019-04-30T06:38:03.011Z,96187.65
2019-04-30T06:40:32.676Z,96189.91
2019-04-30T06:43:02.508Z,96193.59
2019-04-30T06:45:34.551Z,96201.52
2019-04-30T06:48:05.778Z,96197.41
2019-04-30T06:50:35.476Z,96205.81
2019-04-30T06:53:05.177Z,96205.71
2019-04-30T06:55:34.902Z,96212.60
2019-04-30T06:58:14.211Z,96209.16
2019-04-30T07:00:39.954Z,96206.93
2019-04-30T07:03:10.078Z,96211.93
2019-04-30T07:05:39.744Z,96213.98
2019-04-30T07:08:38.966Z,96215.02
2019-04-30T07:11:16.208Z,96214.94
2019-04-30T07:13:51.773Z,96215.44
2019-04-30T07:16:19.138Z,96215.75
2019-04-30T07:18:48.954Z,96225.23
2019-04-30T07:21:19.894Z,96229.08
2019-04-30T07:23:49.647Z,96239.76
2019-04-30T07:26:24.247Z,96241.22
2019-04-30T07:28:54.919Z,96252.22
2019-04-30T07:31:21.999Z,96250.83
2019-04-30T07:33:53.984Z,96254.52
2019-04-30T07:36:23.038Z,96256.99
2019-04-30T07:38:56.334Z,96254.58
2019-04-30T07:41:23.987Z,96253.00
2019-04-30T07:43:53.621Z,96253.13
2019-04-30T07:46:23.226Z,96239.18
2019-04-30T07:48:52.927Z,96252.26
2019-04-30T07:51:23.203Z,96249.63
2019-04-30T07:53:53.335Z,96253.88
2019-04-30T07:56:27.859Z,96252.62
2019-04-30T07:58:54.286Z,96257.84
2019-04-30T08:01:23.881Z,96260.15
2019-04-30T08:03:55.148Z,96265.71
2019-04-30T08:06:24.926Z,96267.20
2019-04-30T08:08:57.467Z,96266.46
2019-04-30T08:11:26.537Z,96271.12
2019-04-30T08:13:56.438Z,96271.50
2019-04-30T08:16:28.753Z,96265.06
2019-04-30T08:18:59.168Z,96265.05
2019-04-30T08:21:28.945Z,96266.94
2019-04-30T08:23:59.302Z,96271.66
2019-04-30T08:26:29.813Z,96272.39
2019-04-30T08:28:59.894Z,96273.02
2019-04-30T08:31:29.544Z,96271.52
2019-04-30T08:33:59.310Z,96272.60
2019-04-30T08:36:29.813Z,96268.13
2019-04-30T08:38:59.823Z,96265.94
2019-04-30T08:41:29.630Z,96266.78
2019-04-30T08:43:59.759Z,96262.80
2019-04-30T08:46:29.633Z,96270.48
2019-04-30T08:48:59.240Z,96269.28
2019-04-30T08:51:31.040Z,96270.07
2019-04-30T08:54:01.105Z,96267.98
2019-04-30T08:56:30.729Z,96263.48
2019-04-30T08:59:00.341Z,96267.84
2019-04-30T09:01:30.007Z,96269.72
2019-04-30T09:03:59.933Z,96269.75
2019-04-30T09:06:30.349Z,96272.27
2019-04-30T09:09:00.709Z,96275.63
2019-04-30T09:11:38.575Z,96276.64
2019-04-30T09:14:01.654Z,96279.85
2019-04-30T09:16:31.267Z,96279.13
2019-04-30T09:19:00.888Z,96280.61
2019-04-30T09:21:30.478Z,96284.45
2019-04-30T09:24:00.093Z,96284.80
2019-04-30T09:26:29.721Z,96282.36
2019-04-30T09:28:59.566Z,96289.64
2019-04-30T09:31:29.745Z,96281.28
2019-04-30T09:34:01.028Z,96281.53
2019-04-30T09:36:30.762Z,96284.83
2019-04-30T09:39:01.480Z,96291.00
2019-04-30T09:41:31.364Z,96287.95
2019-04-30T09:44:00.960Z,96287.23
2019-04-30T09:46:30.586Z,96286.02
2019-04-30T09:49:00.178Z,96282.72
2019-04-30T09:51:30.917Z,96284.56
2019-04-30T09:54:03.593Z,96282.71
2019-04-30T09:56:32.174Z,96284.36
2019-04-30T09:59:01.778Z,96290.95
2019-04-30T10:01:32.910Z,96278.70
2019-04-30T10:04:03.112Z,96283.75
2019-04-30T10:06:39.783Z,96289.30
2019-04-30T10:09:06.726Z,96282.22
2019-04-30T10:11:43.965Z,96283.12
2019-04-30T10:14:13.593Z,96284.41
2019-04-30T10:17:00.786Z,96292.47
2019-04-30T10:19:30.429Z,96283.75
2019-04-30T10:22:00.134Z,96285.30
2019-04-30T10:24:29.933Z,96278.20
2019-04-30T10:27:02.440Z,96281.49
2019-04-30T10:29:32.575Z,96278.70
2019-04-30T10:32:02.205Z,96275.02
2019-04-30T10:34:32.086Z,96277.27
2019-04-30T10:37:02.958Z,96278.50
2019-04-30T10:39:32.876Z,96270.68
2019-04-30T10:42:02.839Z,96272.45
2019-04-30T10:44:32.504Z,96266.81
2019-04-30T10:47:02.139Z,96271.07
2019-04-30T10:49:31.832Z,96271.57
2019-04-30T10:52:01.433Z,96260.02
2019-04-30T10:54:31.129Z,96266.48
2019-04-30T10:57:00.791Z,96262.84
2019-04-30T10:59:30.497Z,96268.80
2019-04-30T11:02:00.163Z,96268.19
2019-04-30T11:04:29.909Z,96266.03
2019-04-30T11:07:00.549Z,96258.09
2019-04-30T11:09:31.129Z,96257.80
2019-04-30T11:12:03.046Z,96256.27
2019-04-30T11:14:32.589Z,96260.09
2019-04-30T11:17:02.537Z,96254.64
2019-04-30T11:19:32.553Z,96254.42
2019-04-30T11:22:02.613Z,96250.03
2019-04-30T11:24:38.011Z,96254.62
2019-04-30T11:27:04.219Z,96262.05
2019-04-30T11:29:34.255Z,96263.18
2019-04-30T11:32:06.055Z,96263.89
2019-04-30T11:34:35.737Z,96261.40
2019-04-30T11:37:05.397Z,96262.95
2019-04-30T11:39:35.059Z,96260.22
2019-04-30T11:42:05.094Z,96258.58
2019-04-30T11:44:34.781Z,96269.32
2019-04-30T11:47:24.906Z,96264.66
2019-04-30T11:49:54.644Z,96265.93
2019-04-30T11:52:24.506Z,96260.20
2019-04-30T11:54:54.806Z,96263.42
2019-04-30T11:57:24.731Z,96254.83
2019-04-30T11:59:54.386Z,96259.02
2019-04-30T12:02:32.163Z,96260.86
2019-04-30T12:05:01.759Z,96256.52
2019-04-30T12:07:35.442Z,96263.91
2019-04-30T12:10:09.399Z,96248.63
2019-04-30T12:12:39.194Z,96248.42
2019-04-30T12:15:09.451Z,96248.91
2019-04-30T12:17:39.123Z,96254.86
2019-04-30T12:20:13.097Z,96246.56
2019-04-30T12:22:42.731Z,96244.06
2019-04-30T12:25:12.596Z,96245.52
2019-04-30T12:27:42.190Z,96238.38
2019-04-30T12:30:14.073Z,96241.51
2019-04-30T12:32:43.670Z,96240.12
2019-04-30T12:35:14.106Z,96241.46
2019-04-30T12:37:43.698Z,96244.98
2019-04-30T12:40:26.660Z,96246.48
2019-04-30T12:42:45.890Z,96241.08
2019-04-30T12:45:15.827Z,96240.61
2019-04-30T12:47:49.843Z,96246.35
2019-04-30T12:50:21.277Z,96239.27
2019-04-30T12:52:52.526Z,96243.80
2019-04-30T12:55:29.475Z,96247.95
2019-04-30T12:58:01.617Z,96246.58
2019-04-30T13:00:31.915Z,96248.21
2019-04-30T13:03:01.546Z,96245.59
2019-04-30T13:05:31.176Z,96243.41
2019-04-30T13:08:01.361Z,96237.34
2019-04-30T13:10:32.151Z,96238.27
2019-04-30T13:13:02.496Z,96234.91
2019-04-30T13:15:32.182Z,96230.03
2019-04-30T13:18:01.774Z,96238.56
2019-04-30T13:20:31.557Z,96234.59
2019-04-30T13:23:01.239Z,96238.51
2019-04-30T13:25:35.392Z,96237.55
2019-04-30T13:28:03.778Z,96233.19
2019-04-30T13:30:33.545Z,96228.77
2019-04-30T13:33:13.546Z,96229.22
2019-04-30T13:35:43.140Z,96228.63
2019-04-30T13:38:23.331Z,96226.97
2019-04-30T13:40:54.560Z,96223.12
2019-04-30T13:43:25.808Z,96220.13
2019-04-30T13:45:55.442Z,96218.47
2019-04-30T13:48:25.031Z,96217.73
2019-04-30T13:50:54.661Z,96221.84
2019-04-30T13:53:24.290Z,96219.23
2019-04-30T13:55:53.930Z,96213.39
2019-04-30T13:58:23.522Z,96216.84
2019-04-30T14:00:53.151Z,96213.63
2019-04-30T14:03:24.383Z,96207.35
2019-04-30T14:05:54.017Z,96213.97
2019-04-30T14:08:28.983Z,96216.20
2019-04-30T14:10:59.184Z,96204.66
2019-04-30T14:13:28.950Z,96211.38
2019-04-30T14:15:58.714Z,96213.92
2019-04-30T14:18:33.783Z,96223.34
2019-04-30T14:21:01.028Z,96212.08
2019-04-30T14:23:30.706Z,96211.83
2019-04-30T14:26:01.137Z,96214.00
2019-04-30T14:28:30.915Z,96214.51
2019-04-30T14:31:00.574Z,96213.78
2019-04-30T14:33:30.168Z,96217.27
2019-04-30T14:36:00.834Z,96227.17
2019-04-30T14:38:30.613Z,96227.14
2019-04-30T14:41:01.203Z,96238.26
2019-04-30T14:43:33.606Z,96232.48
2019-04-30T14:46:21.689Z,96230.52
2019-04-30T14:48:53.819Z,96233.27
2019-04-30T14:51:24.164Z,96228.85
2019-04-30T14:54:00.995Z,96234.48
2019-04-30T14:56:39.429Z,96234.52
2019-04-30T14:59:28.813Z,96235.28
2019-04-30T15:02:05.547Z,96235.77
2019-04-30T15:04:35.180Z,96230.52
2019-04-30T15:07:04.842Z,96226.52
2019-04-30T15:09:34.555Z,96238.73
2019-04-30T15:12:04.652Z,96232.02
2019-04-30T15:14:34.261Z,96227.00
2019-04-30T15:17:03.884Z,96223.59
2019-04-30T15:19:33.478Z,96227.02
2019-04-30T15:22:04.020Z,96229.39
2019-04-30T15:24:39.277Z,96224.53
2019-04-30T15:27:09.381Z,96227.95
2019-04-30T15:29:39.320Z,96226.82
2019-04-30T15:32:08.971Z,96220.86
2019-04-30T15:34:40.842Z,96225.34
2019-04-30T15:37:19.044Z,96222.20
2019-04-30T15:39:41.483Z,96221.72
2019-04-30T15:42:11.692Z,96223.39
2019-04-30T15:44:45.237Z,96226.45
2019-04-30T15:47:13.036Z,96224.75
2019-04-30T15:49:42.754Z,96222.97
2019-04-30T15:52:12.418Z,96222.28
2019-04-30T15:54:42.051Z,96217.11
2019-04-30T15:57:11.714Z,96224.80
2019-04-30T15:59:41.718Z,96236.11
2019-04-30T16:02:14.441Z,96230.09
2019-04-30T16:05:01.541Z,96229.67
2019-04-30T16:07:31.131Z,96228.11
2019-04-30T16:10:12.600Z,96236.07
2019-04-30T16:12:48.608Z,96239.88
2019-04-30T16:15:19.188Z,96235.85
2019-04-30T16:17:50.422Z,96226.57
2019-04-30T16:20:20.135Z,96230.22
2019-04-30T16:22:49.730Z,96224.88
2019-04-30T16:25:19.507Z,96222.47
2019-04-30T16:27:49.412Z,96234.53
2019-04-30T16:30:19.615Z,96236.14
2019-04-30T16:32:50.722Z,96225.63
2019-04-30T16:35:20.434Z,96226.38
2019-04-30T16:37:50.116Z,96221.06
2019-04-30T16:40:21.362Z,96228.45
2019-04-30T16:42:50.970Z,96216.30
2019-04-30T16:45:20.672Z,96222.63
2019-04-30T16:47:50.274Z,96223.31
2019-04-30T16:50:20.406Z,96216.77
2019-04-30T16:52:50.012Z,96223.22
2019-04-30T16:55:19.658Z,96225.03
2019-04-30T16:57:50.189Z,96235.66
2019-04-30T17:00:20.853Z,96233.44
2019-04-30T17:02:57.671Z,96234.78
2019-04-30T17:05:48.018Z,96242.70
2019-04-30T17:08:20.452Z,96234.91
2019-04-30T17:10:54.395Z,96237.63
2019-04-30T17:13:25.672Z,96239.53
2019-04-30T17:16:12.024Z,96252.91
2019-04-30T17:18:41.958Z,96248.95
2019-04-30T17:21:11.551Z,96240.25
2019-04-30T17:23:41.152Z,96245.54
2019-04-30T17:26:10.855Z,96247.50
2019-04-30T17:28:40.479Z,96260.52
2019-04-30T17:31:10.093Z,96255.75
2019-04-30T17:33:39.699Z,96244.84
2019-04-30T17:36:11.113Z,96249.61
2019-04-30T17:38:40.875Z,96246.97
2019-04-30T17:41:10.546Z,96250.53
2019-04-30T17:43:41.827Z,96238.89
2019-04-30T17:46:11.458Z,96246.92
2019-04-30T17:48:41.062Z,96251.66
2019-04-30T17:51:10.688Z,96253.14
2019-04-30T17:53:41.996Z,96268.73
2019-04-30T17:56:11.632Z,96260.86
2019-04-30T17:58:41.262Z,96268.95
2019-04-30T18:01:11.272Z,96270.25
2019-04-30T18:03:40.907Z,96263.42
2019-04-30T18:06:10.576Z,96272.90
2019-04-30T18:08:40.211Z,96259.64
2019-04-30T18:11:09.888Z,96266.81
2019-04-30T18:13:39.646Z,96267.23
2019-04-30T18:16:09.585Z,96270.54
2019-04-30T18:18:46.577Z,96278.83
2019-04-30T18:21:31.130Z,96289.46
2019-04-30T18:24:11.080Z,96283.03
2019-04-30T18:26:51.127Z,96284.10
2019-04-30T18:29:21.030Z,96275.64
2019-04-30T18:31:50.885Z,96284.94
2019-04-30T18:34:20.741Z,96285.20
2019-04-30T18:36:51.212Z,96291.84
2019-04-30T18:39:21.085Z,96295.20
2019-04-30T18:41:50.969Z,96288.70
2019-04-30T18:44:20.967Z,96300.16
2019-04-30T18:46:50.583Z,96307.36
2019-04-30T18:49:20.357Z,96310.37
2019-04-30T18:51:50.239Z,96317.16
2019-04-30T18:54:20.940Z,96314.03
2019-04-30T18:56:50.817Z,96318.55
2019-04-30T18:59:20.737Z,96320.75
2019-04-30T19:01:50.577Z,96328.08
2019-04-30T19:04:20.435Z,96326.04
2019-04-30T19:06:51.957Z,96326.14
2019-04-30T19:09:32.546Z,96323.16
2019-04-30T19:12:06.370Z,96334.39
2019-04-30T19:14:45.314Z,96329.34
2019-04-30T19:17:22.733Z,96333.86
2019-04-30T19:20:10.695Z,96329.25
2019-04-30T19:22:40.568Z,96338.59
2019-04-30T19:25:12.370Z,96346.80
2019-04-30T19:27:42.569Z,96348.67
2019-04-30T19:30:12.849Z,96356.28
2019-04-30T19:32:42.679Z,96353.31
2019-04-30T19:35:12.932Z,96353.00
2019-04-30T19:37:42.599Z,96354.14
2019-04-30T19:40:12.677Z,96361.25
2019-04-30T19:42:42.278Z,96357.09
2019-04-30T19:45:12.714Z,96366.34
2019-04-30T19:47:42.436Z,96369.44
2019-04-30T19:50:14.101Z,96380.16
2019-04-30T19:52:44.156Z,96390.70
2019-04-30T19:55:14.061Z,96390.91
2019-04-30T19:57:43.661Z,96394.20
2019-04-30T20:00:14.603Z,96401.91
2019-04-30T20:02:44.263Z,96399.92
2019-04-30T20:05:14.207Z,96403.11
2019-04-30T20:07:43.819Z,96408.85
2019-04-30T20:10:13.860Z,96412.88
2019-04-30T20:12:43.491Z,96416.09
2019-04-30T20:15:19.025Z,96411.34
2019-04-30T20:17:45.331Z,96405.50
2019-04-30T20:20:15.235Z,96404.39
2019-04-30T20:22:44.870Z,96398.20
2019-04-30T20:25:14.600Z,96396.05
2019-04-30T20:27:44.231Z,96391.58
2019-04-30T20:30:14.331Z,96391.28
2019-04-30T20:32:43.967Z,96396.11
2019-04-30T20:35:13.563Z,96400.22
2019-04-30T20:38:00.531Z,96403.53
2019-04-30T20:40:43.027Z,96399.53
2019-04-30T20:43:03.131Z,96376.67
2019-04-30T20:45:32.795Z,96379.04
2019-04-30T20:48:02.430Z,96387.06
2019-04-30T20:50:32.063Z,96400.68
2019-04-30T20:53:01.666Z,96398.72
2019-04-30T20:55:31.295Z,96399.64
2019-04-30T20:58:00.898Z,96408.98
2019-04-30T21:00:30.508Z,96411.25
2019-04-30T21:03:00.116Z,96406.52
2019-04-30T21:05:29.836Z,96406.22
2019-04-30T21:07:59.594Z,96404.14
2019-04-30T21:10:29.837Z,96393.39
2019-04-30T21:12:59.507Z,96406.27
2019-04-30T21:15:29.745Z,96398.03
2019-04-30T21:17:59.459Z,96395.47
2019-04-30T21:20:29.141Z,96394.52
2019-04-30T21:22:59.692Z,96394.53
2019-04-30T21:25:29.417Z,96391.61
2019-04-30T21:27:59.915Z,96394.25
2019-04-30T21:30:29.755Z,96397.98
2019-04-30T21:33:01.578Z,96397.68
2019-04-30T21:35:44.357Z,96397.34
2019-04-30T21:38:13.998Z,96399.38
2019-04-30T21:40:43.601Z,96387.34
2019-04-30T21:43:13.182Z,96391.92
2019-04-30T21:45:42.884Z,96390.59
2019-04-30T21:48:12.626Z,96392.53
2019-04-30T21:50:42.239Z,96391.89
2019-04-30T21:53:11.879Z,96394.41
2019-04-30T21:55:41.477Z,96397.04
2019-04-30T21:58:11.073Z,96390.40
2019-04-30T22:00:40.475Z,96403.77
2019-04-30T22:03:10.222Z,96409.29
2019-04-30T22:05:39.890Z,96400.28
2019-04-30T22:08:09.518Z,96403.13
2019-04-30T22:10:39.145Z,96408.41
2019-04-30T22:13:08.995Z,96402.72
2019-04-30T22:15:38.619Z,96409.76
2019-04-30T22:18:08.251Z,96409.33
2019-04-30T22:20:38.879Z,96412.95
2019-04-30T22:23:08.663Z,96417.36
2019-04-30T22:25:39.247Z,96416.71
2019-04-30T22:28:09.029Z,96417.55
2019-04-30T22:30:38.698Z,96423.59
2019-04-30T22:33:08.913Z,96427.55
2019-04-30T22:35:42.416Z,96423.55
2019-04-30T22:38:13.655Z,96436.55
2019-04-30T22:40:43.282Z,96435.58
2019-04-30T22:43:12.970Z,96433.89
2019-04-30T22:45:50.222Z,96438.02
2019-04-30T22:48:19.853Z,96426.41
2019-04-30T22:50:49.512Z,96428.92
2019-04-30T22:53:19.128Z,96427.47
2019-04-30T22:55:48.780Z,96426.75
2019-04-30T22:58:18.414Z,96426.87
2019-04-30T23:00:48.244Z,96428.36
2019-04-30T23:03:19.537Z,96419.38
2019-04-30T23:05:49.236Z,96421.28
2019-04-30T23:08:18.890Z,96412.41
2019-04-30T23:10:48.644Z,96414.98
2019-04-30T23:13:18.943Z,96410.55
2019-04-30T23:15:52.447Z,96402.02
2019-04-30T23:18:22.087Z,96394.45
2019-04-30T23:20:52.079Z,96393.63
2019-04-30T23:23:21.737Z,96390.92
2019-04-30T23:25:51.358Z,96402.16
2019-04-30T23:28:20.994Z,96384.36
2019-04-30T23:30:50.766Z,96384.82
2019-04-30T23:33:20.357Z,96383.84
2019-04-30T23:35:50.101Z,96377.23
2019-04-30T23:38:19.686Z,96364.16
2019-04-30T23:40:53.261Z,96356.61
2019-04-30T23:43:23.215Z,96359.41
2019-04-30T23:45:52.932Z,96338.44
2019-04-30T23:48:22.521Z,96334.41
2019-04-30T23:50:52.158Z,96321.64
2019-04-30T23:53:21.738Z,96326.44
2019-04-30T23:55:51.375Z,96337.84
2019-04-30T23:58:21.013Z,96328.71
